Eurodam — PHOS — position and weather

sailwx.info

Track history (hours):
 
Tides and Currents Weather Stations Pressure Air Temp Water Temp Dewpoint Dewpoint Depression Visibility Wind Speed Wind Dir Waves Ship Positions

Eurodam (Netherlands)

Last reported at 2015-Jul-06 02:00 UTC. Time now 2015-Jul-06 17:44 UTC.
Position N 56°06' E 003°18'.

Length 285 m; draft 8.1 m.

Type: Ship. MMSI: 245206000.

Wind from 300 at 27 knots

Waves 0.5 meters (2 feet), 2 second period

Barometer 1011.2 mb
Visibility: greater than 10.8 NM

Date/timePositionNaut miles runAvg speedWind from/ knotsBaromVisibWave heightAir tempDewpointWater temp
2015-Jul-06 02:00N 56°06' E 003°18'12117.4 300 / 271011.210.8 0.5
2015-Jul-05 19:00N 55°18' E 000°00'1423.7 160 / 201011.410.8 0.515.212.513.8
2015-Jul-05 18:24N 55°15' W 000°24'1517.6
2015-Jul-05 17:32N 55°09' W 000°49'1717.0
2015-Jul-05 16:33N 55°03' W 001°16'7 7.0
2015-Jul-05 15:32N 54°60' W 001°27'0 0.0
2015-Jul-05 14:32N 54°60' W 001°27'0 0.0
2015-Jul-05 13:32N 54°60' W 001°27'0 0.0
2015-Jul-05 12:32N 54°60' W 001°27'0 0.0
2015-Jul-05 11:32N 54°60' W 001°27'0 0.0
2015-Jul-05 10:26N 54°60' W 001°27'0 0.0
2015-Jul-05 09:32N 54°60' W 001°27'0 0.0
2015-Jul-05 08:29N 54°60' W 001°27'0 0.0
2015-Jul-05 07:29N 54°60' W 001°27'0 0.0
2015-Jul-05 06:32N 54°60' W 001°27'0 0.1
2015-Jul-05 05:22N 54°60' W 001°27'2 2.0
2015-Jul-05 04:29N 55°01' W 001°24'1111.7
2015-Jul-05 03:34N 55°11' W 001°19'2019.4
2015-Jul-05 02:31N 55°31' W 001°23'2220.2
2015-Jul-05 01:27N 55°51' W 001°40'1820.5
2015-Jul-05 00:34N 56°01' W 002°06'712.4
2015-Jul-05 00:00N 56°00' W 002°18'1431.9 250 / 101016.010.8 0.5
2015-Jul-04 23:34N 56°06' W 002°40'1716.5
2015-Jul-04 22:33N 56°03' W 003°09'8 7.9
2015-Jul-04 21:33N 56°00' W 003°23'0 0.1
2015-Jul-04 20:33N 56°00' W 003°22'0 1.1
2015-Jul-04 20:16N 56°00' W 003°23'0 0.3
2015-Jul-04 19:29N 56°00' W 003°23'1 2.1
2015-Jul-04 19:13N 55°60' W 003°23'1 0.9
2015-Jul-04 18:30N 56°00' W 003°22'0 4.1
2015-Jul-04 18:26N 56°00' W 003°23'0 0.4
2015-Jul-04 17:33N 56°00' W 003°23'0 4.7
2015-Jul-04 17:30N 56°00' W 003°23'0 0.7
2015-Jul-04 17:11N 56°00' W 003°23'0 0.7
2015-Jul-04 16:33N 56°00' W 003°22'1 5.2
2015-Jul-04 16:21N 55°59' W 003°23'015.6
2015-Jul-04 16:20N 55°60' W 003°23'1 0.9
2015-Jul-04 15:33N 56°00' W 003°23'0 1.0
2015-Jul-04 15:13N 56°00' W 003°23'0 0.4
2015-Jul-04 14:33N 56°00' W 003°23'097.1
2015-Jul-04 14:33N 55°60' W 003°23'0 0.4
2015-Jul-04 13:33N 56°00' W 003°23'120.6
2015-Jul-04 13:31N 55°60' W 003°23'1 0.8
2015-Jul-04 12:33N 56°00' W 003°23'0 9.9
2015-Jul-04 12:32N 56°00' W 003°23'0 0.2
2015-Jul-04 11:33N 56°00' W 003°23'025.9
2015-Jul-04 11:33N 56°00' W 003°23'0 7.1
2015-Jul-04 11:31N 55°60' W 003°23'0 0.5
2015-Jul-04 10:33N 56°00' W 003°23'0 4.3
2015-Jul-04 10:27N 55°60' W 003°23'016.2
2015-Jul-04 10:26N 55°60' W 003°23'1 0.8
2015-Jul-04 09:33N 56°00' W 003°23'0 0.0
2015-Jul-04 08:33N 56°00' W 003°23'2 2.4
2015-Jul-04 07:33N 56°01' W 003°19'1111.1
2015-Jul-04 06:33N 56°04' W 002°60'1414.2
2015-Jul-04 05:33N 56°12' W 002°38'1413.7
2015-Jul-04 04:33N 56°22' W 002°23'1414.4
2015-Jul-04 03:33N 56°35' W 002°10'6114.8
2015-Jul-03 23:28N 57°30' W 001°23'1415.5
2015-Jul-03 22:33N 57°44' W 001°28'1615.4
2015-Jul-03 21:31N 57°54' W 001°52'2013.4
2015-Jul-03 20:00N 57°54' W 002°30'36 1.9 140 / 201025.4 0.0 1.013.011.412.2
2015-Jul-03 01:17N 58°27' W 002°57'412.8
2015-Jul-03 01:00N 58°24' W 002°54'1228.3 330 / 181019.0
2015-Jul-03 00:33N 58°36' W 002°56'1615.7
2015-Jul-02 23:33N 58°44' W 003°23'2221.9
2015-Jul-02 22:33N 58°43' W 004°05'2322.3
2015-Jul-02 21:32N 58°41' W 004°49'2121.0
2015-Jul-02 20:33N 58°28' W 005°20'1120.2
2015-Jul-02 20:00N 58°18' W 005°30'1023.7 310 / 11017.510.8 12.911.310.8
2015-Jul-02 19:34N 58°09' W 005°39'134 6.9
2015-Jul-02 00:00N 56°06' W 007°18'2315.9 320 / 15 10.8
2015-Jul-01 22:34N 55°50' W 006°49'1717.4
2015-Jul-01 21:34N 55°36' W 006°30'1616.5
2015-Jul-01 20:33N 55°25' W 006°09'1514.7
2015-Jul-01 19:33N 55°15' W 005°50'1221.0
2015-Jul-01 19:00N 55°06' W 005°36'1224.2 190 / 201007.910.8 0.515.411.610.7
2015-Jul-01 18:30N 55°16' W 005°25'1716.3
2015-Jul-01 17:29N 55°25' W 005°00'3116.3
2015-Jul-01 15:33N 55°56' W 004°54'26 2.0
2015-Jul-01 02:27N 55°30' W 004°57'1011.4
2015-Jul-01 01:33N 55°21' W 005°04'1515.1
2015-Jul-01 00:33N 55°13' W 005°26'1413.9
2015-Jun-30 23:33N 55°12' W 005°51'1312.5
2015-Jun-30 22:33N 55°21' W 006°06'1313.5
2015-Jun-30 21:33N 55°25' W 006°29'1312.8
2015-Jun-30 20:33N 55°32' W 006°48'5 9.4
2015-Jun-30 20:00N 55°36' W 006°54'921.3 190 / 121010.810.8 1.015.312.110.9
2015-Jun-30 19:33N 55°44' W 007°01'11213.1
2015-Jun-30 11:00N 57°36' W 006°48'9913.1 180 / 351010.510.8 1.016.213.514.0
2015-Jun-30 03:28N 59°01' W 005°14'1314.1
2015-Jun-30 02:33N 59°10' W 004°55'1414.5
2015-Jun-30 01:33N 59°18' W 004°32'1515.0
2015-Jun-30 00:33N 59°24' W 004°04'240429.0
2015-Jun-30 00:00N 59°24' E 003°48'226518.5 130 / 201015.710.8 0.5
2015-Jun-29 23:33N 59°29' W 003°37'6217.5
2015-Jun-29 20:00N 59°42' W 001°36'77 4.0 210 / 161016.910.8 1.514.011.510.0
2015-Jun-29 01:00N 59°30' E 000°54'9415.6 270 / 161012.210.8 0.5
2015-Jun-28 19:00N 59°12' E 003°54'2517.5 150 / 191011.0 2.2 1.511.810.911.4
2015-Jun-28 17:33N 59°07' E 004°42'1615.8
2015-Jun-28 16:33N 59°04' E 005°12'1111.4
2015-Jun-28 15:33N 59°04' E 005°34'7 7.1
2015-Jun-28 14:31N 58°58' E 005°44'0 0.0
2015-Jun-28 13:31N 58°58' E 005°44'0 0.0
2015-Jun-28 12:31N 58°58' E 005°44'0 0.0
2015-Jun-28 11:31N 58°58' E 005°44'0 0.0
2015-Jun-28 10:31N 58°58' E 005°44'0 0.0
2015-Jun-28 09:31N 58°58' E 005°44'0 0.0
2015-Jun-28 08:31N 58°58' E 005°44'0 0.0
2015-Jun-28 07:31N 58°58' E 005°44'0 0.0
2015-Jun-28 06:31N 58°58' E 005°44'0 0.0
2015-Jun-28 05:31N 58°58' E 005°44'6 6.2
2015-Jun-28 04:33N 59°03' E 005°36'8 7.9
2015-Jun-28 03:33N 59°03' E 005°20'1211.9
2015-Jun-28 02:33N 58°51' E 005°19'1111.4
2015-Jun-28 01:33N 58°40' E 005°20'1211.8
2015-Jun-28 00:32N 58°28' E 005°20'1111.3
2015-Jun-27 23:33N 58°18' E 005°31'1312.2
2015-Jun-27 22:31N 58°10' E 005°48'75 4.1
2015-Jun-27 04:20N 58°03' E 008°09'912.1
2015-Jun-27 03:33N 58°03' E 008°27'1211.7
2015-Jun-27 02:33N 58°04' E 008°49'1212.3
2015-Jun-27 01:33N 58°13' E 009°04'2512.3
2015-Jun-26 23:31N 58°32' E 009°36'1212.3
2015-Jun-26 22:31N 58°40' E 009°55'1313.5
2015-Jun-26 21:33N 58°47' E 010°15'1313.5
2015-Jun-26 20:33N 58°57' E 010°34'1212.1
2015-Jun-26 19:33N 59°09' E 010°38'1515.3
2015-Jun-26 18:33N 59°24' E 010°34'711.6
2015-Jun-26 18:00N 59°30' E 010°30'921.4 180 / 201013.810.8 0.517.2 9.613.2
2015-Jun-26 17:33N 59°39' E 010°37'1412.0
2015-Jun-26 16:22N 59°53' E 010°40'15 1.4
2015-Jun-26 05:21N 59°38' E 010°38'1316.1
2015-Jun-26 04:34N 59°25' E 010°34'1616.3
2015-Jun-26 03:33N 59°09' E 010°39'1313.2
2015-Jun-26 02:33N 58°56' E 010°34'  
Track history (hours):
 
Tides and Currents Weather Stations Pressure Air Temp Water Temp Dewpoint Dewpoint Depression Visibility Wind Speed Wind Dir Waves Ship Positions

Eurodam (Netherlands)

Last reported at 2015-Jul-06 02:00 UTC. Time now 2015-Jul-06 17:44 UTC.
Position N 56°06' E 003°18'.

Length 285 m; draft 8.1 m.

Type: Ship. MMSI: 245206000.

Wind from 300 at 27 knots

Waves 0.5 meters (2 feet), 2 second period

Barometer 1011.2 mb
Visibility: greater than 10.8 NM

Date/timePositionNaut miles runAvg speedWind from/ knotsBaromVisibWave heightAir tempDewpointWater temp
2015-Jul-06 02:00N 56°06' E 003°18'12117.4 300 / 271011.210.8 0.5
2015-Jul-05 19:00N 55°18' E 000°00'1423.7 160 / 201011.410.8 0.515.212.513.8
2015-Jul-05 18:24N 55°15' W 000°24'1517.6
2015-Jul-05 17:32N 55°09' W 000°49'1717.0
2015-Jul-05 16:33N 55°03' W 001°16'7 7.0
2015-Jul-05 15:32N 54°60' W 001°27'0 0.0
2015-Jul-05 14:32N 54°60' W 001°27'0 0.0
2015-Jul-05 13:32N 54°60' W 001°27'0 0.0
2015-Jul-05 12:32N 54°60' W 001°27'0 0.0
2015-Jul-05 11:32N 54°60' W 001°27'0 0.0
2015-Jul-05 10:26N 54°60' W 001°27'0 0.0
2015-Jul-05 09:32N 54°60' W 001°27'0 0.0
2015-Jul-05 08:29N 54°60' W 001°27'0 0.0
2015-Jul-05 07:29N 54°60' W 001°27'0 0.0
2015-Jul-05 06:32N 54°60' W 001°27'0 0.1
2015-Jul-05 05:22N 54°60' W 001°27'2 2.0
2015-Jul-05 04:29N 55°01' W 001°24'1111.7
2015-Jul-05 03:34N 55°11' W 001°19'2019.4
2015-Jul-05 02:31N 55°31' W 001°23'2220.2
2015-Jul-05 01:27N 55°51' W 001°40'1820.5
2015-Jul-05 00:34N 56°01' W 002°06'712.4
2015-Jul-05 00:00N 56°00' W 002°18'1431.9 250 / 101016.010.8 0.5
2015-Jul-04 23:34N 56°06' W 002°40'1716.5
2015-Jul-04 22:33N 56°03' W 003°09'8 7.9
2015-Jul-04 21:33N 56°00' W 003°23'0 0.1
2015-Jul-04 20:33N 56°00' W 003°22'0 1.1
2015-Jul-04 20:16N 56°00' W 003°23'0 0.3
2015-Jul-04 19:29N 56°00' W 003°23'1 2.1
2015-Jul-04 19:13N 55°60' W 003°23'1 0.9
2015-Jul-04 18:30N 56°00' W 003°22'0 4.1
2015-Jul-04 18:26N 56°00' W 003°23'0 0.4
2015-Jul-04 17:33N 56°00' W 003°23'0 4.7
2015-Jul-04 17:30N 56°00' W 003°23'0 0.7
2015-Jul-04 17:11N 56°00' W 003°23'0 0.7
2015-Jul-04 16:33N 56°00' W 003°22'1 5.2
2015-Jul-04 16:21N 55°59' W 003°23'015.6
2015-Jul-04 16:20N 55°60' W 003°23'1 0.9
2015-Jul-04 15:33N 56°00' W 003°23'0 1.0
2015-Jul-04 15:13N 56°00' W 003°23'0 0.4
2015-Jul-04 14:33N 56°00' W 003°23'097.1
2015-Jul-04 14:33N 55°60' W 003°23'0 0.4
2015-Jul-04 13:33N 56°00' W 003°23'120.6
2015-Jul-04 13:31N 55°60' W 003°23'1 0.8
2015-Jul-04 12:33N 56°00' W 003°23'0 9.9
2015-Jul-04 12:32N 56°00' W 003°23'0 0.2
2015-Jul-04 11:33N 56°00' W 003°23'025.9
2015-Jul-04 11:33N 56°00' W 003°23'0 7.1
2015-Jul-04 11:31N 55°60' W 003°23'0 0.5
2015-Jul-04 10:33N 56°00' W 003°23'0 4.3
2015-Jul-04 10:27N 55°60' W 003°23'016.2
2015-Jul-04 10:26N 55°60' W 003°23'1 0.8
2015-Jul-04 09:33N 56°00' W 003°23'0 0.0
2015-Jul-04 08:33N 56°00' W 003°23'2 2.4
2015-Jul-04 07:33N 56°01' W 003°19'1111.1
2015-Jul-04 06:33N 56°04' W 002°60'1414.2
2015-Jul-04 05:33N 56°12' W 002°38'1413.7
2015-Jul-04 04:33N 56°22' W 002°23'1414.4
2015-Jul-04 03:33N 56°35' W 002°10'6114.8
2015-Jul-03 23:28N 57°30' W 001°23'1415.5
2015-Jul-03 22:33N 57°44' W 001°28'1615.4
2015-Jul-03 21:31N 57°54' W 001°52'2013.4
2015-Jul-03 20:00N 57°54' W 002°30'36 1.9 140 / 201025.4 0.0 1.013.011.412.2
2015-Jul-03 01:17N 58°27' W 002°57'412.8
2015-Jul-03 01:00N 58°24' W 002°54'1228.3 330 / 181019.0
2015-Jul-03 00:33N 58°36' W 002°56'1615.7
2015-Jul-02 23:33N 58°44' W 003°23'2221.9
2015-Jul-02 22:33N 58°43' W 004°05'2322.3
2015-Jul-02 21:32N 58°41' W 004°49'2121.0
2015-Jul-02 20:33N 58°28' W 005°20'1120.2
2015-Jul-02 20:00N 58°18' W 005°30'1023.7 310 / 11017.510.8 12.911.310.8
2015-Jul-02 19:34N 58°09' W 005°39'134 6.9
2015-Jul-02 00:00N 56°06' W 007°18'2315.9 320 / 15 10.8
2015-Jul-01 22:34N 55°50' W 006°49'1717.4
2015-Jul-01 21:34N 55°36' W 006°30'1616.5
2015-Jul-01 20:33N 55°25' W 006°09'1514.7
2015-Jul-01 19:33N 55°15' W 005°50'1221.0
2015-Jul-01 19:00N 55°06' W 005°36'1224.2 190 / 201007.910.8 0.515.411.610.7
2015-Jul-01 18:30N 55°16' W 005°25'1716.3
2015-Jul-01 17:29N 55°25' W 005°00'3116.3
2015-Jul-01 15:33N 55°56' W 004°54'26 2.0
2015-Jul-01 02:27N 55°30' W 004°57'1011.4
2015-Jul-01 01:33N 55°21' W 005°04'1515.1
2015-Jul-01 00:33N 55°13' W 005°26'1413.9
2015-Jun-30 23:33N 55°12' W 005°51'1312.5
2015-Jun-30 22:33N 55°21' W 006°06'1313.5
2015-Jun-30 21:33N 55°25' W 006°29'1312.8
2015-Jun-30 20:33N 55°32' W 006°48'5 9.4
2015-Jun-30 20:00N 55°36' W 006°54'921.3 190 / 121010.810.8 1.015.312.110.9
2015-Jun-30 19:33N 55°44' W 007°01'11213.1
2015-Jun-30 11:00N 57°36' W 006°48'9913.1 180 / 351010.510.8 1.016.213.514.0
2015-Jun-30 03:28N 59°01' W 005°14'1314.1
2015-Jun-30 02:33N 59°10' W 004°55'1414.5
2015-Jun-30 01:33N 59°18' W 004°32'1515.0
2015-Jun-30 00:33N 59°24' W 004°04'240429.0
2015-Jun-30 00:00N 59°24' E 003°48'226518.5 130 / 201015.710.8 0.5
2015-Jun-29 23:33N 59°29' W 003°37'6217.5
2015-Jun-29 20:00N 59°42' W 001°36'77 4.0 210 / 161016.910.8 1.514.011.510.0
2015-Jun-29 01:00N 59°30' E 000°54'9415.6 270 / 161012.210.8 0.5
2015-Jun-28 19:00N 59°12' E 003°54'2517.5 150 / 191011.0 2.2 1.511.810.911.4
2015-Jun-28 17:33N 59°07' E 004°42'1615.8
2015-Jun-28 16:33N 59°04' E 005°12'1111.4
2015-Jun-28 15:33N 59°04' E 005°34'7 7.1
2015-Jun-28 14:31N 58°58' E 005°44'0 0.0
2015-Jun-28 13:31N 58°58' E 005°44'0 0.0
2015-Jun-28 12:31N 58°58' E 005°44'0 0.0
2015-Jun-28 11:31N 58°58' E 005°44'0 0.0
2015-Jun-28 10:31N 58°58' E 005°44'0 0.0
2015-Jun-28 09:31N 58°58' E 005°44'0 0.0
2015-Jun-28 08:31N 58°58' E 005°44'0 0.0
2015-Jun-28 07:31N 58°58' E 005°44'0 0.0
2015-Jun-28 06:31N 58°58' E 005°44'0 0.0
2015-Jun-28 05:31N 58°58' E 005°44'6 6.2
2015-Jun-28 04:33N 59°03' E 005°36'8 7.9
2015-Jun-28 03:33N 59°03' E 005°20'1211.9
2015-Jun-28 02:33N 58°51' E 005°19'1111.4
2015-Jun-28 01:33N 58°40' E 005°20'1211.8
2015-Jun-28 00:32N 58°28' E 005°20'1111.3
2015-Jun-27 23:33N 58°18' E 005°31'1312.2
2015-Jun-27 22:31N 58°10' E 005°48'75 4.1
2015-Jun-27 04:20N 58°03' E 008°09'912.1
2015-Jun-27 03:33N 58°03' E 008°27'1211.7
2015-Jun-27 02:33N 58°04' E 008°49'1212.3
2015-Jun-27 01:33N 58°13' E 009°04'2512.3
2015-Jun-26 23:31N 58°32' E 009°36'1212.3
2015-Jun-26 22:31N 58°40' E 009°55'1313.5
2015-Jun-26 21:33N 58°47' E 010°15'1313.5
2015-Jun-26 20:33N 58°57' E 010°34'1212.1
2015-Jun-26 19:33N 59°09' E 010°38'1515.3
2015-Jun-26 18:33N 59°24' E 010°34'711.6
2015-Jun-26 18:00N 59°30' E 010°30'921.4 180 / 201013.810.8 0.517.2 9.613.2
2015-Jun-26 17:33N 59°39' E 010°37'1412.0
2015-Jun-26 16:22N 59°53' E 010°40'15 1.4
2015-Jun-26 05:21N 59°38' E 010°38'1316.1
2015-Jun-26 04:34N 59°25' E 010°34'1616.3
2015-Jun-26 03:33N 59°09' E 010°39'1313.2
2015-Jun-26 02:33N 58°56' E 010°34'  

Dump ship's entire track history